createdAt,value
2022-08-26T00:02:29.706Z,28.43
2022-08-26T00:07:22.808Z,28.21
2022-08-26T00:12:17.788Z,28.00
2022-08-26T00:17:11.624Z,28.29
2022-08-26T00:22:06.262Z,28.50
2022-08-26T00:27:00.571Z,28.57
2022-08-26T00:31:55.565Z,28.49
2022-08-26T00:36:51.864Z,28.60
2022-08-26T00:41:46.133Z,28.44
2022-08-26T00:46:45.031Z,28.61
2022-08-26T00:51:54.336Z,28.64
2022-08-26T00:57:16.359Z,28.63
2022-08-26T01:02:49.171Z,28.64
2022-08-26T01:08:03.680Z,28.54
2022-08-26T01:13:06.343Z,28.58
2022-08-26T01:18:01.460Z,28.63
2022-08-26T01:23:06.897Z,28.63
2022-08-26T01:28:24.692Z,28.69
2022-08-26T01:33:24.276Z,28.47
2022-08-26T01:38:18.841Z,28.70
2022-08-26T01:43:52.052Z,28.71
2022-08-26T01:48:46.807Z,28.71
2022-08-26T01:53:43.539Z,28.57
2022-08-26T01:58:52.247Z,28.57
2022-08-26T02:04:17.479Z,28.51
2022-08-26T02:09:12.245Z,28.57
2022-08-26T02:14:12.176Z,28.61
2022-08-26T02:19:07.503Z,28.60
2022-08-26T02:24:16.167Z,28.59
2022-08-26T02:29:18.010Z,28.59
2022-08-26T02:34:19.946Z,28.61
2022-08-26T02:39:19.523Z,28.57
2022-08-26T02:44:15.643Z,28.68
2022-08-26T02:49:09.274Z,28.57
2022-08-26T02:54:03.071Z,28.69
2022-08-26T02:58:58.579Z,28.69
2022-08-26T03:03:52.187Z,28.54
2022-08-26T03:08:45.528Z,28.57
2022-08-26T03:13:40.195Z,28.60
2022-08-26T03:18:33.762Z,28.45
2022-08-26T03:23:27.603Z,28.61
2022-08-26T03:28:22.998Z,28.59
2022-08-26T03:33:21.149Z,28.61
2022-08-26T03:38:19.577Z,28.48
2022-08-26T03:43:15.319Z,28.49
2022-08-26T03:48:09.297Z,28.47
2022-08-26T03:53:03.350Z,28.60
2022-08-26T03:57:57.521Z,28.56
2022-08-26T04:02:53.468Z,28.56
2022-08-26T04:07:48.768Z,28.56
2022-08-26T04:12:44.665Z,28.42
2022-08-26T04:17:38.447Z,28.41
2022-08-26T04:22:32.019Z,28.40
2022-08-26T04:27:26.456Z,28.50
2022-08-26T04:32:20.149Z,28.41
2022-08-26T04:37:13.415Z,28.41
2022-08-26T04:42:08.127Z,28.47
2022-08-26T04:47:03.193Z,28.40
2022-08-26T04:51:56.311Z,28.46
2022-08-26T04:56:51.571Z,28.38
2022-08-26T05:01:50.409Z,28.37
2022-08-26T05:06:44.156Z,28.37
2022-08-26T05:11:39.189Z,28.38
2022-08-26T05:16:33.784Z,28.46
2022-08-26T05:21:29.813Z,28.47
2022-08-26T05:26:26.098Z,28.32
2022-08-26T05:31:22.844Z,28.44
2022-08-26T05:36:19.617Z,28.32
2022-08-26T05:41:18.745Z,28.45
2022-08-26T05:46:12.392Z,28.44
2022-08-26T05:51:10.743Z,28.45
2022-08-26T05:56:06.200Z,28.33
2022-08-26T06:01:04.155Z,28.50
2022-08-26T06:05:58.004Z,28.42
2022-08-26T06:10:56.788Z,28.27
2022-08-26T06:15:52.198Z,28.55
2022-08-26T06:20:54.609Z,28.39
2022-08-26T06:25:53.332Z,28.50
2022-08-26T06:30:47.730Z,28.58
2022-08-26T06:35:42.614Z,28.36
2022-08-26T06:40:43.159Z,28.60
2022-08-26T06:45:36.860Z,28.51
2022-08-26T06:50:31.170Z,28.61
2022-08-26T06:55:27.099Z,28.58
2022-08-26T07:00:22.108Z,28.61
2022-08-26T07:05:16.265Z,28.59
2022-08-26T07:10:10.914Z,28.50
2022-08-26T07:15:04.173Z,28.63
2022-08-26T07:19:58.421Z,28.62
2022-08-26T07:24:54.107Z,28.50
2022-08-26T07:29:47.928Z,28.39
2022-08-26T07:34:43.097Z,28.63
2022-08-26T07:39:37.313Z,28.50
2022-08-26T07:44:31.476Z,28.51
2022-08-26T07:49:28.085Z,28.63
2022-08-26T07:54:27.123Z,28.61
2022-08-26T07:59:20.500Z,28.62
2022-08-26T08:04:19.430Z,28.63
2022-08-26T08:09:19.189Z,28.62
2022-08-26T08:14:13.721Z,28.59
2022-08-26T08:19:07.701Z,28.63
2022-08-26T08:24:02.264Z,28.51
2022-08-26T08:28:58.040Z,28.50
2022-08-26T08:33:51.258Z,28.62
2022-08-26T08:38:45.335Z,28.58
2022-08-26T08:43:47.160Z,28.53
2022-08-26T08:48:47.240Z,28.40
2022-08-26T08:53:45.364Z,28.64
2022-08-26T08:59:03.227Z,28.64
2022-08-26T09:04:30.836Z,28.52
2022-08-26T09:09:31.801Z,28.64
2022-08-26T09:14:25.141Z,28.64
2022-08-26T09:19:33.636Z,28.53
2022-08-26T09:24:29.761Z,28.55
2022-08-26T09:29:27.768Z,28.65
2022-08-26T09:34:28.563Z,28.57
2022-08-26T09:39:39.996Z,28.63
2022-08-26T09:44:36.469Z,28.66
2022-08-26T09:49:38.255Z,28.65
2022-08-26T09:54:32.463Z,28.54
2022-08-26T09:59:31.767Z,28.64
2022-08-26T10:04:31.183Z,28.54
2022-08-26T10:09:30.549Z,28.55
2022-08-26T10:14:28.840Z,28.66
2022-08-26T10:19:55.536Z,28.44
2022-08-26T10:24:54.947Z,28.65
2022-08-26T10:29:52.757Z,28.55
2022-08-26T10:34:45.749Z,28.51
2022-08-26T10:40:16.806Z,28.64
2022-08-26T10:45:20.574Z,28.64
2022-08-26T10:50:15.415Z,28.51
2022-08-26T10:55:27.477Z,28.53
2022-08-26T11:00:47.428Z,28.66
2022-08-26T11:05:41.399Z,28.66
2022-08-26T11:10:43.547Z,28.69
2022-08-26T11:15:39.987Z,28.67
2022-08-26T11:20:48.373Z,28.58
2022-08-26T11:25:57.468Z,28.69
2022-08-26T11:30:58.073Z,28.70
2022-08-26T11:35:53.620Z,28.59
2022-08-26T11:40:57.780Z,28.70
2022-08-26T11:46:05.151Z,28.63
2022-08-26T11:51:05.590Z,28.72
2022-08-26T11:55:59.259Z,28.73
2022-08-26T12:00:58.937Z,28.67
2022-08-26T12:05:54.520Z,28.73
2022-08-26T12:11:08.921Z,28.59
2022-08-26T12:16:04.926Z,28.74
2022-08-26T12:21:20.239Z,28.64
2022-08-26T12:26:28.348Z,28.74
2022-08-26T12:31:28.759Z,28.73
2022-08-26T12:36:29.787Z,28.74
2022-08-26T12:41:41.109Z,28.69
2022-08-26T12:46:34.836Z,28.50
2022-08-26T12:51:31.265Z,28.63
2022-08-26T12:56:41.027Z,28.62
2022-08-26T13:01:41.310Z,28.71
2022-08-26T13:06:35.799Z,28.63
2022-08-26T13:11:40.827Z,28.78
2022-08-26T13:16:34.525Z,28.77
2022-08-26T13:21:37.412Z,28.69
2022-08-26T13:26:31.318Z,28.66
2022-08-26T13:31:26.968Z,28.79
2022-08-26T13:36:20.956Z,28.66
2022-08-26T13:41:14.677Z,28.81
2022-08-26T13:46:09.491Z,28.70
2022-08-26T13:51:03.606Z,28.80
2022-08-26T13:56:02.664Z,28.73
2022-08-26T14:01:02.798Z,28.70
2022-08-26T14:05:56.694Z,28.70
2022-08-26T14:10:50.734Z,28.73
2022-08-26T14:15:44.348Z,28.84
2022-08-26T14:20:39.168Z,28.81
2022-08-26T14:25:34.389Z,28.73
2022-08-26T14:30:29.344Z,28.86
2022-08-26T14:35:27.231Z,28.74
2022-08-26T14:40:23.286Z,28.63
2022-08-26T14:45:24.470Z,28.87
2022-08-26T14:50:23.605Z,28.88
2022-08-26T14:55:18.128Z,28.75
2022-08-26T15:00:11.927Z,28.82
2022-08-26T15:05:08.314Z,28.87
2022-08-26T15:10:02.586Z,28.82
2022-08-26T15:14:56.955Z,28.85
2022-08-26T15:19:51.260Z,28.74
2022-08-26T15:24:45.747Z,28.74
2022-08-26T15:29:39.897Z,28.70
2022-08-26T15:34:34.260Z,28.68
2022-08-26T15:39:26.971Z,28.83
2022-08-26T15:44:19.937Z,28.72
2022-08-26T15:49:18.549Z,28.83
2022-08-26T15:54:12.216Z,28.70
2022-08-26T15:59:08.564Z,28.74
2022-08-26T16:04:01.768Z,28.73
2022-08-26T16:08:57.465Z,28.75
2022-08-26T16:13:50.912Z,28.74
2022-08-26T16:18:45.400Z,28.86
2022-08-26T16:23:38.995Z,28.86
2022-08-26T16:28:33.719Z,28.76
2022-08-26T16:33:29.471Z,28.91
2022-08-26T16:38:23.513Z,28.81
2022-08-26T16:43:16.840Z,28.91
2022-08-26T16:48:11.955Z,28.92
2022-08-26T16:53:05.727Z,28.87
2022-08-26T16:58:00.246Z,28.96
2022-08-26T17:02:55.473Z,28.95
2022-08-26T17:07:48.179Z,28.94
2022-08-26T17:12:41.877Z,28.94
2022-08-26T17:17:35.919Z,28.94
2022-08-26T17:22:34.129Z,28.87
2022-08-26T17:27:28.662Z,28.95
2022-08-26T17:32:21.467Z,28.85
2022-08-26T17:37:14.873Z,28.94
2022-08-26T17:42:08.417Z,28.83
2022-08-26T17:47:02.365Z,28.96
2022-08-26T17:52:03.445Z,28.95
2022-08-26T17:56:57.819Z,28.75
2022-08-26T18:02:13.655Z,29.09
2022-08-26T18:07:06.293Z,29.12
2022-08-26T18:12:01.395Z,29.05
2022-08-26T18:16:55.484Z,29.13
2022-08-26T18:21:49.174Z,29.04
2022-08-26T18:26:48.545Z,29.15
2022-08-26T18:31:42.615Z,29.14
2022-08-26T18:36:38.131Z,29.02
2022-08-26T18:41:34.203Z,29.17
2022-08-26T18:46:28.697Z,29.24
2022-08-26T18:51:27.013Z,29.19
2022-08-26T18:56:20.088Z,29.03
2022-08-26T19:01:14.241Z,29.25
2022-08-26T19:06:09.715Z,29.22
2022-08-26T19:11:04.371Z,29.13
2022-08-26T19:16:00.566Z,29.16
2022-08-26T19:20:58.010Z,29.24
2022-08-26T19:25:53.115Z,29.22
2022-08-26T19:30:51.309Z,29.35
2022-08-26T19:35:46.903Z,29.38
2022-08-26T19:40:41.143Z,29.37
2022-08-26T19:45:36.573Z,29.24
2022-08-26T19:50:32.598Z,29.23
2022-08-26T19:55:27.271Z,28.98
2022-08-26T20:00:24.857Z,29.07
2022-08-26T20:05:21.619Z,28.98
2022-08-26T20:10:16.820Z,29.05
2022-08-26T20:15:13.527Z,29.23
2022-08-26T20:20:32.876Z,29.05
2022-08-26T20:25:27.896Z,29.29
2022-08-26T20:30:23.029Z,29.27
2022-08-26T20:35:17.366Z,29.16
2022-08-26T20:40:17.900Z,29.26
2022-08-26T20:45:13.475Z,29.26
2022-08-26T20:50:08.918Z,29.28
2022-08-26T20:55:01.169Z,29.21
2022-08-26T20:59:54.807Z,29.29
2022-08-26T21:04:49.410Z,29.29
2022-08-26T21:09:46.884Z,29.16
2022-08-26T21:14:40.843Z,29.28
2022-08-26T21:19:34.751Z,29.29
2022-08-26T21:24:29.052Z,29.17
2022-08-26T21:29:22.860Z,29.28
2022-08-26T21:34:19.638Z,29.17
2022-08-26T21:39:13.270Z,29.20
2022-08-26T21:44:06.266Z,29.27
2022-08-26T21:49:02.171Z,29.16
2022-08-26T21:53:57.589Z,29.29
2022-08-26T21:58:52.574Z,29.28
2022-08-26T22:03:47.922Z,29.16
2022-08-26T22:08:41.878Z,29.28
2022-08-26T22:13:38.583Z,29.14
2022-08-26T22:18:33.301Z,29.15
2022-08-26T22:23:30.136Z,29.29
2022-08-26T22:28:23.316Z,29.29
2022-08-26T22:33:18.295Z,29.29
2022-08-26T22:38:12.596Z,29.16
2022-08-26T22:43:06.640Z,29.22
2022-08-26T22:48:07.671Z,29.01
2022-08-26T22:53:01.499Z,29.24
2022-08-26T22:57:54.965Z,29.13
2022-08-26T23:02:49.139Z,29.04
2022-08-26T23:07:47.060Z,29.24
2022-08-26T23:12:41.651Z,29.12
2022-08-26T23:17:36.183Z,29.16
2022-08-26T23:22:30.148Z,29.26
2022-08-26T23:27:23.508Z,29.18
2022-08-26T23:32:17.562Z,29.10
2022-08-26T23:37:11.702Z,29.10
2022-08-26T23:42:06.968Z,29.00
2022-08-26T23:47:01.332Z,28.96
2022-08-26T23:52:13.114Z,28.69
2022-08-26T23:57:07.732Z,28.88
